Time;durP1;ratioP1;P1;durP2;ratioP2;P2;SDS_P1;SDS_P2;PMS_P1;PMS_P2;Temp;Humidity;BMP_temperature;BMP_pressure;BME280_temperature;BME280_humidity;BME280_pressure;Samples;Min_cycle;Max_cycle;Signal;HPM_P1;HPM_P2
2021/12/20 00:01:30;;;;;;;38.63;19.23;;;8.30;99.90;;;;;;4148552;28;20193;-90
2021/12/20 00:03:32;;;;;;;31.92;18.80;;;8.30;99.90;;;;;;4148708;28;20165;-89
2021/12/20 00:05:32;;;;;;;45.00;20.20;;;8.30;99.90;;;;;;4166943;28;20199;-89
2021/12/20 00:07:33;;;;;;;38.25;19.77;;;8.40;99.90;;;;;;4168006;28;20525;-89
2021/12/20 00:09:34;;;;;;;43.70;20.42;;;8.30;99.90;;;;;;4168160;28;20168;-89
2021/12/20 00:11:35;;;;;;;30.23;18.63;;;8.30;99.90;;;;;;4167950;28;20176;-89
2021/12/20 00:13:35;;;;;;;33.00;18.30;;;8.30;99.90;;;;;;4167760;28;20584;-89
2021/12/20 00:15:36;;;;;;;35.30;18.83;;;8.30;99.90;;;;;;4151420;28;20192;-89
2021/12/20 00:17:37;;;;;;;39.97;19.25;;;8.10;99.90;;;;;;4151655;28;20214;-89
2021/12/20 00:19:37;;;;;;;32.92;18.23;;;8.10;99.90;;;;;;4168023;28;20527;-89
2021/12/20 00:21:38;;;;;;;32.25;17.70;;;8.20;99.90;;;;;;4151522;28;20177;-89
2021/12/20 00:23:39;;;;;;;33.75;18.42;;;8.10;99.90;;;;;;4167816;28;20219;-89
2021/12/20 00:25:40;;;;;;;35.42;17.92;;;8.10;99.90;;;;;;4151696;28;20683;-89
2021/12/20 00:27:41;;;;;;;36.03;18.17;;;8.20;99.90;;;;;;4151390;28;20181;-89
2021/12/20 00:29:42;;;;;;;31.63;17.27;;;8.10;99.90;;;;;;4167847;28;20183;-89
2021/12/20 00:31:43;;;;;;;25.52;17.27;;;8.10;99.90;;;;;;4151201;28;20181;-89
2021/12/20 00:33:43;;;;;;;32.45;17.33;;;8.30;99.90;;;;;;4167505;28;20207;-89
2021/12/20 00:35:45;;;;;;;36.60;17.77;;;8.20;99.90;;;;;;4167730;28;20282;-89
2021/12/20 00:40:21;;;;;;;35.55;17.63;;;8.20;99.90;;;;;;4183936;28;20166;-89
2021/12/20 00:42:22;;;;;;;31.27;17.80;;;8.10;99.90;;;;;;4167645;28;20180;-89
2021/12/20 00:44:22;;;;;;;26.40;13.90;;;8.10;99.90;;;;;;4151079;28;20255;-88
2021/12/20 00:46:23;;;;;;;32.25;17.08;;;8.40;99.90;;;;;;4150992;28;20239;-89
2021/12/20 00:48:24;;;;;;;31.17;17.15;;;8.30;99.90;;;;;;4151080;28;20533;-89
2021/12/20 00:50:25;;;;;;;39.35;17.67;;;8.10;99.90;;;;;;4167429;28;20188;-89
2021/12/20 00:52:26;;;;;;;34.85;18.42;;;8.20;99.90;;;;;;4167355;28;20200;-89
2021/12/20 00:54:27;;;;;;;27.58;17.77;;;8.50;99.90;;;;;;4151048;28;20641;-88
2021/12/20 00:56:27;;;;;;;26.95;17.02;;;8.50;99.90;;;;;;4150775;28;20177;-89
2021/12/20 00:58:28;;;;;;;22.15;12.95;;;8.30;99.90;;;;;;4151080;28;20173;-89
2021/12/20 01:00:48;;;;;;;22.85;10.43;;;9.00;99.90;;;;;;4167285;28;20172;-88
2021/12/20 01:02:49;;;;;;;29.10;15.03;;;9.30;99.90;;;;;;4167688;28;20183;-89
2021/12/20 01:04:50;;;;;;;28.93;15.50;;;9.10;99.90;;;;;;4150875;28;20283;-89
2021/12/20 01:06:51;;;;;;;28.73;16.23;;;8.50;99.90;;;;;;4150630;28;20177;-89
2021/12/20 01:08:52;;;;;;;33.10;18.03;;;8.50;99.90;;;;;;4167307;28;20172;-89
2021/12/20 01:10:54;;;;;;;34.33;17.70;;;8.90;99.90;;;;;;4151037;28;20173;-88
2021/12/20 01:12:58;;;;;;;33.38;17.90;;;9.40;99.90;;;;;;4150667;28;20228;-89
2021/12/20 01:15:01;;;;;;;29.53;18.00;;;9.30;99.90;;;;;;4150438;28;20552;-89
2021/12/20 01:17:05;;;;;;;31.37;16.57;;;8.90;99.90;;;;;;4150571;28;20172;-89
2021/12/20 01:19:06;;;;;;;30.42;17.50;;;8.50;99.90;;;;;;4166838;28;20168;-89
2021/12/20 01:21:08;;;;;;;29.43;17.63;;;8.50;99.90;;;;;;4150490;28;20195;-89
2021/12/20 01:23:10;;;;;;;35.40;17.20;;;8.80;99.90;;;;;;4150479;28;20267;-89
2021/12/20 01:25:12;;;;;;;28.77;17.30;;;8.60;99.90;;;;;;4150337;28;20597;-89
2021/12/20 01:27:13;;;;;;;32.33;18.08;;;8.30;99.90;;;;;;4150339;28;20181;-89
2021/12/20 01:29:14;;;;;;;32.88;17.95;;;8.30;99.90;;;;;;4150164;28;20212;-88
2021/12/20 01:31:15;;;;;;;34.13;17.90;;;9.20;99.90;;;;;;4150282;28;20173;-88
2021/12/20 01:33:15;;;;;;;32.60;17.87;;;9.70;99.90;;;;;;4150269;28;20291;-89
2021/12/20 01:35:20;;;;;;;36.37;18.00;;;9.40;99.90;;;;;;4166581;28;20668;-89
2021/12/20 01:37:20;;;;;;;33.17;17.77;;;8.70;99.90;;;;;;4150117;28;20176;-89
2021/12/20 01:39:22;;;;;;;32.35;16.75;;;8.40;99.90;;;;;;4166599;28;20161;-89
2021/12/20 01:41:22;;;;;;;39.33;17.23;;;8.40;99.90;;;;;;4149986;28;20235;-89
2021/12/20 01:43:23;;;;;;;28.20;17.25;;;8.90;99.90;;;;;;4166501;28;20165;-90
2021/12/20 01:45:27;;;;;;;29.33;17.13;;;9.10;99.90;;;;;;4149686;28;20697;-89
2021/12/20 01:47:31;;;;;;;28.83;16.92;;;8.70;99.90;;;;;;4150078;28;20206;-90
2021/12/20 01:49:40;;;;;;;35.47;17.77;;;8.50;99.90;;;;;;4166326;28;20188;-89
2021/12/20 01:51:51;;;;;;;33.08;17.20;;;8.70;99.90;;;;;;4166187;28;20171;-89
2021/12/20 01:53:52;;;;;;;38.17;17.88;;;8.80;99.90;;;;;;4149623;28;20303;-89
2021/12/20 01:55:55;;;;;;;36.65;18.50;;;9.40;99.90;;;;;;4165810;28;20203;-88
2021/12/20 01:57:56;;;;;;;35.90;17.97;;;9.90;99.90;;;;;;4166105;28;20176;-89
2021/12/20 01:59:56;;;;;;;40.92;20.33;;;10.10;99.90;;;;;;4149908;28;20606;-89
2021/12/20 02:01:57;;;;;;;36.07;18.20;;;9.80;99.90;;;;;;4149480;28;20612;-89
2021/12/20 02:04:01;;;;;;;36.90;19.03;;;9.40;99.90;;;;;;4149422;28;20180;-89
2021/12/20 02:06:06;;;;;;;40.83;19.80;;;9.00;99.90;;;;;;4149300;28;20628;-89
2021/12/20 02:08:23;;;;;;;38.50;19.10;;;9.50;99.90;;;;;;4149628;28;20247;-88
2021/12/20 02:10:24;;;;;;;39.30;19.17;;;9.70;99.90;;;;;;4166171;28;20183;-89
2021/12/20 02:12:25;;;;;;;34.93;18.60;;;9.50;99.90;;;;;;4166107;28;20172;-88
2021/12/20 02:14:26;;;;;;;41.63;18.60;;;9.30;99.90;;;;;;4165793;28;20180;-89
2021/12/20 02:16:26;;;;;;;41.03;18.20;;;9.40;99.90;;;;;;4149558;28;20167;-88
2021/12/20 02:18:29;;;;;;;36.90;18.90;;;9.40;99.90;;;;;;4166038;28;20184;-88
2021/12/20 02:20:32;;;;;;;47.13;20.43;;;9.20;99.90;;;;;;4165964;28;20278;-89
2021/12/20 02:22:33;;;;;;;43.13;20.60;;;9.20;99.90;;;;;;4166030;28;20232;-88
2021/12/20 02:24:34;;;;;;;50.43;21.33;;;8.90;99.90;;;;;;4165458;28;20176;-88
2021/12/20 02:26:36;;;;;;;41.57;18.83;;;8.80;99.90;;;;;;4165631;28;20648;-88
2021/12/20 02:28:41;;;;;;;46.30;20.33;;;8.70;99.90;;;;;;4148694;28;20275;-88
2021/12/20 02:37:30;;;;;;;47.17;21.90;;;9.00;99.90;;;;;;4181961;28;20272;-88
2021/12/20 02:39:31;;;;;;;43.17;21.30;;;9.10;99.90;;;;;;4149330;28;20188;-89
2021/12/20 02:41:33;;;;;;;50.17;22.23;;;9.10;99.90;;;;;;4149172;28;20183;-88
2021/12/20 02:43:38;;;;;;;51.60;23.87;;;9.00;99.90;;;;;;4165680;28;20169;-88
2021/12/20 02:45:40;;;;;;;51.40;22.53;;;9.10;99.90;;;;;;4165336;28;20283;-88
2021/12/20 02:47:43;;;;;;;45.70;22.83;;;9.00;99.90;;;;;;4148990;28;20172;-89
2021/12/20 02:49:44;;;;;;;47.20;22.70;;;9.10;99.90;;;;;;4148974;28;20184;-89
2021/12/20 02:51:47;;;;;;;45.67;22.20;;;9.10;99.90;;;;;;4165167;28;20628;-89
2021/12/20 02:53:47;;;;;;;51.90;23.83;;;9.00;99.90;;;;;;4165322;28;20219;-89
2021/12/20 02:55:48;;;;;;;50.47;23.70;;;9.20;99.90;;;;;;4148685;28;20192;-88
2021/12/20 02:57:49;;;;;;;53.80;24.53;;;9.50;99.90;;;;;;4149079;28;20185;-89
2021/12/20 02:59:50;;;;;;;49.23;23.23;;;9.60;99.90;;;;;;4165481;28;20259;-88
2021/12/20 03:01:58;;;;;;;53.60;24.87;;;9.50;99.90;;;;;;4164982;28;20237;-88
2021/12/20 03:03:59;;;;;;;51.60;25.13;;;9.50;99.90;;;;;;4148631;28;20176;-89
2021/12/20 03:06:06;;;;;;;48.43;23.83;;;9.50;99.90;;;;;;4148622;28;20660;-89
2021/12/20 03:08:07;;;;;;;58.70;25.07;;;9.50;99.90;;;;;;4148674;28;20252;-89
2021/12/20 03:10:08;;;;;;;50.40;25.00;;;9.50;99.90;;;;;;4164851;28;20172;-89
2021/12/20 03:12:12;;;;;;;50.83;24.33;;;9.40;99.90;;;;;;4165151;28;20238;-89
2021/12/20 03:14:25;;;;;;;52.20;24.53;;;9.30;99.90;;;;;;4148835;28;20276;-89
2021/12/20 03:16:26;;;;;;;47.30;24.63;;;9.30;99.90;;;;;;4148618;28;20177;-89
2021/12/20 03:18:26;;;;;;;59.37;24.37;;;9.50;99.90;;;;;;4148508;28;20243;-95
2021/12/20 03:20:27;;;;;;;53.53;26.07;;;9.50;99.90;;;;;;4148455;28;20192;-89
2021/12/20 03:22:28;;;;;;;57.33;26.73;;;9.60;99.90;;;;;;4148651;28;20245;-88
2021/12/20 03:24:28;;;;;;;61.00;26.33;;;9.80;99.90;;;;;;4148591;28;20180;-89
2021/12/20 03:26:29;;;;;;;57.33;25.47;;;9.90;99.90;;;;;;4164718;28;20175;-88
2021/12/20 03:28:30;;;;;;;57.13;26.20;;;9.70;99.90;;;;;;4148557;28;20204;-89
2021/12/20 03:30:31;;;;;;;55.43;25.50;;;9.30;99.90;;;;;;4149078;28;20533;-89
2021/12/20 03:32:32;;;;;;;48.73;22.57;;;9.10;99.90;;;;;;4148344;28;20204;-88
2021/12/20 03:34:33;;;;;;;50.17;23.07;;;8.70;99.90;;;;;;4148312;28;20181;-89
2021/12/20 03:36:34;;;;;;;52.00;23.83;;;8.50;99.90;;;;;;4148367;28;20177;-88
2021/12/20 03:38:35;;;;;;;50.73;23.70;;;9.00;99.90;;;;;;4148766;28;20173;-89
2021/12/20 03:40:37;;;;;;;44.90;22.43;;;9.10;99.90;;;;;;4148569;28;20181;-89
2021/12/20 03:42:42;;;;;;;48.13;21.47;;;9.10;99.90;;;;;;4148353;28;20257;-89
2021/12/20 03:44:44;;;;;;;49.50;22.97;;;8.70;99.90;;;;;;4164604;28;20213;-89
2021/12/20 03:46:45;;;;;;;52.07;24.67;;;8.60;99.90;;;;;;4148501;28;20268;-95
2021/12/20 03:48:46;;;;;;;52.73;25.13;;;9.30;99.90;;;;;;4148514;28;20176;-88
2021/12/20 03:50:47;;;;;;;55.17;26.10;;;9.80;99.90;;;;;;4148515;28;20203;-88
2021/12/20 03:52:47;;;;;;;62.87;26.17;;;10.00;99.90;;;;;;4164395;28;20249;-88
2021/12/20 03:54:48;;;;;;;64.40;27.57;;;9.90;99.90;;;;;;4148090;28;20327;-89
2021/12/20 03:56:49;;;;;;;58.53;26.37;;;9.60;99.90;;;;;;4148081;28;20197;-89
2021/12/20 03:58:49;;;;;;;66.93;26.90;;;9.50;99.90;;;;;;4148104;28;20553;-88
2021/12/20 04:00:51;;;;;;;64.37;27.40;;;9.40;99.90;;;;;;4148182;28;20165;-88
2021/12/20 04:02:52;;;;;;;60.77;28.07;;;9.10;99.90;;;;;;4164531;28;20172;-88
2021/12/20 04:04:53;;;;;;;53.43;27.57;;;8.80;99.90;;;;;;4148278;28;20240;-88
2021/12/20 04:06:54;;;;;;;59.90;27.70;;;8.70;99.90;;;;;;4164516;28;20176;-88
2021/12/20 04:08:55;;;;;;;61.87;26.37;;;8.60;99.90;;;;;;4148084;28;20206;-88
2021/12/20 04:10:57;;;;;;;51.90;26.13;;;8.40;99.90;;;;;;4147914;28;20264;-88
2021/12/20 04:12:57;;;;;;;57.77;25.63;;;8.40;99.90;;;;;;4147908;28;20295;-88
2021/12/20 04:14:58;;;;;;;52.33;25.23;;;8.30;99.90;;;;;;4147871;28;20200;-88
2021/12/20 04:16:59;;;;;;;59.50;25.00;;;8.30;99.90;;;;;;4148039;28;20701;-88
2021/12/20 04:18:59;;;;;;;52.00;24.27;;;8.30;99.90;;;;;;4148043;28;20177;-88
2021/12/20 04:21:01;;;;;;;53.87;24.77;;;8.10;99.90;;;;;;4148202;28;20793;-88
2021/12/20 04:23:02;;;;;;;48.17;23.63;;;8.10;99.90;;;;;;4164441;28;20176;-92
2021/12/20 04:25:03;;;;;;;47.17;23.03;;;8.00;99.90;;;;;;4164366;28;20315;-88
2021/12/20 04:27:04;;;;;;;49.63;23.10;;;8.00;99.90;;;;;;4147973;28;20204;-88
2021/12/20 04:29:04;;;;;;;47.93;24.20;;;8.10;99.90;;;;;;4148301;28;20684;-88
2021/12/20 04:31:05;;;;;;;48.50;22.30;;;8.10;99.90;;;;;;4164477;28;20177;-89
2021/12/20 04:33:06;;;;;;;46.90;21.97;;;8.20;99.90;;;;;;4147970;28;20223;-88
2021/12/20 04:35:09;;;;;;;49.30;21.87;;;8.20;99.90;;;;;;4147946;28;20185;-88
2021/12/20 04:37:09;;;;;;;45.63;20.57;;;8.30;99.90;;;;;;4148145;28;20177;-88
2021/12/20 04:39:14;;;;;;;47.53;20.43;;;8.40;99.90;;;;;;4147940;28;20176;-88
2021/12/20 04:41:15;;;;;;;44.83;20.70;;;8.30;99.90;;;;;;4147878;28;20177;-89
2021/12/20 04:43:15;;;;;;;42.63;19.37;;;8.20;99.90;;;;;;4164129;28;20176;-88
2021/12/20 04:45:16;;;;;;;36.67;17.50;;;8.10;99.90;;;;;;4164268;28;20279;-88
2021/12/20 04:47:17;;;;;;;29.87;16.10;;;8.20;99.90;;;;;;4147981;28;20192;-94
2021/12/20 04:49:18;;;;;;;34.00;15.60;;;8.20;99.90;;;;;;4147975;28;20204;-94
2021/12/20 04:51:19;;;;;;;30.70;16.33;;;8.10;99.90;;;;;;4166685;28;20218;-92
2021/12/20 04:53:20;;;;;;;33.90;15.50;;;8.00;99.90;;;;;;4168213;28;20215;-96
2021/12/20 04:55:22;;;;;;;22.90;12.33;;;8.00;99.90;;;;;;4169689;28;20200;-96
2021/12/20 04:57:24;;;;;;;24.20;12.47;;;7.90;99.90;;;;;;4169222;28;20172;-89
2021/12/20 04:59:24;;;;;;;20.40;12.50;;;7.90;99.90;;;;;;4151370;28;20216;-94
2021/12/20 05:01:25;;;;;;;28.03;13.37;;;7.90;99.90;;;;;;4153278;28;20184;-95
2021/12/20 05:03:26;;;;;;;26.03;12.20;;;7.90;99.90;;;;;;4153474;28;20684;-96
2021/12/20 05:05:28;;;;;;;18.77;8.80;;;8.00;99.90;;;;;;4151651;28;20259;-90
2021/12/20 05:07:29;;;;;;;24.40;9.47;;;8.00;99.90;;;;;;4169444;28;20235;-92
2021/12/20 05:09:36;;;;;;;25.67;10.37;;;7.90;99.90;;;;;;4152378;28;20177;-90
2021/12/20 05:11:45;;;;;;;24.97;10.73;;;7.90;99.90;;;;;;4167284;28;20168;-90
2021/12/20 05:13:46;;;;;;;19.80;10.57;;;8.10;99.90;;;;;;4150382;28;20720;-90
2021/12/20 05:15:47;;;;;;;21.63;9.20;;;8.20;99.90;;;;;;4150269;28;20283;-90
2021/12/20 05:17:48;;;;;;;19.23;8.23;;;8.30;99.90;;;;;;4167075;28;20208;-88
2021/12/20 05:19:49;;;;;;;19.23;7.10;;;8.40;99.90;;;;;;4150428;28;20168;-88
2021/12/20 05:21:49;;;;;;;14.17;6.00;;;8.20;99.90;;;;;;4166806;28;20180;-89
2021/12/20 05:23:52;;;;;;;22.40;6.30;;;7.90;99.90;;;;;;4150369;28;20275;-90
2021/12/20 05:25:52;;;;;;;13.03;3.50;;;7.70;99.90;;;;;;4166693;28;20202;-91
2021/12/20 05:27:54;;;;;;;9.47;2.40;;;7.60;99.90;;;;;;4150436;28;20227;-90
2021/12/20 05:29:55;;;;;;;11.03;2.70;;;7.50;99.90;;;;;;4166533;28;20530;-90
2021/12/20 05:31:56;;;;;;;13.17;2.73;;;7.50;99.90;;;;;;4166623;28;20182;-90
2021/12/20 05:33:56;;;;;;;13.57;2.07;;;7.50;99.90;;;;;;4166276;28;20207;-89
2021/12/20 05:35:57;;;;;;;12.83;2.17;;;7.50;99.90;;;;;;4166157;28;20195;-90
2021/12/20 05:37:58;;;;;;;17.57;2.57;;;7.40;99.90;;;;;;4150365;28;20180;-90
2021/12/20 05:39:59;;;;;;;13.87;2.10;;;7.50;99.90;;;;;;4150291;28;20176;-90
2021/12/20 05:42:00;;;;;;;16.40;2.60;;;7.50;99.90;;;;;;4149865;28;20665;-90
2021/12/20 05:44:00;;;;;;;17.37;2.83;;;7.50;99.90;;;;;;4150105;28;20209;-90
2021/12/20 05:46:01;;;;;;;13.83;2.80;;;7.50;99.90;;;;;;4150407;28;20197;-90
2021/12/20 05:48:02;;;;;;;17.27;2.47;;;7.60;99.90;;;;;;4166114;28;20172;-90
2021/12/20 05:50:05;;;;;;;23.53;3.03;;;7.50;99.90;;;;;;4150381;28;20192;-90
2021/12/20 05:52:06;;;;;;;12.37;2.20;;;7.50;99.90;;;;;;4166235;28;20617;-90
2021/12/20 05:54:07;;;;;;;18.13;2.47;;;7.50;99.90;;;;;;4149550;28;20217;-90
2021/12/20 05:56:08;;;;;;;11.30;2.77;;;7.60;99.90;;;;;;4149830;28;20193;-89
2021/12/20 05:58:08;;;;;;;18.47;2.97;;;7.70;99.90;;;;;;4149704;28;20172;-90
2021/12/20 06:00:14;;;;;;;13.90;2.67;;;7.70;99.90;;;;;;4150232;28;20499;-90
2021/12/20 06:02:15;;;;;;;17.13;2.67;;;7.90;99.90;;;;;;4165003;28;20172;-88
2021/12/20 06:04:15;;;;;;;17.87;2.03;;;8.00;99.90;;;;;;4149580;28;20165;-88
2021/12/20 06:06:16;;;;;;;16.30;1.93;;;7.90;99.90;;;;;;4149527;28;20280;-90
2021/12/20 06:08:17;;;;;;;17.23;2.23;;;7.80;99.90;;;;;;4166418;28;20190;-90
2021/12/20 06:10:19;;;;;;;19.33;1.93;;;7.60;99.90;;;;;;4149608;28;20175;-90
2021/12/20 06:12:19;;;;;;;15.50;2.40;;;7.50;99.90;;;;;;4166153;28;20172;-90
2021/12/20 06:14:20;;;;;;;15.50;2.10;;;7.60;99.90;;;;;;4149610;28;20181;-90
2021/12/20 06:16:21;;;;;;;16.13;2.63;;;7.60;99.90;;;;;;4151760;28;20251;-90
2021/12/20 06:18:22;;;;;;;18.13;2.50;;;7.70;99.90;;;;;;4166064;28;20568;-90
2021/12/20 06:20:23;;;;;;;19.93;2.20;;;7.80;99.90;;;;;;4149369;28;20169;-90
2021/12/20 06:22:23;;;;;;;18.63;2.63;;;7.80;99.90;;;;;;4149353;28;20267;-91
2021/12/20 06:24:24;;;;;;;18.27;2.83;;;7.90;99.90;;;;;;4149134;28;20165;-90
2021/12/20 06:26:25;;;;;;;24.20;3.10;;;7.90;99.90;;;;;;4165526;28;20270;-90
2021/12/20 06:28:26;;;;;;;20.77;2.33;;;7.90;99.90;;;;;;4166027;28;20211;-91
2021/12/20 06:30:27;;;;;;;25.23;2.43;;;7.80;99.90;;;;;;4149387;28;20173;-90
2021/12/20 06:32:27;;;;;;;23.20;2.30;;;7.80;99.90;;;;;;4149880;28;20239;-91
2021/12/20 06:34:28;;;;;;;24.00;2.43;;;7.90;99.90;;;;;;4165699;28;20268;-90
2021/12/20 06:36:31;;;;;;;24.27;2.67;;;7.90;99.90;;;;;;4149669;28;20196;-90
2021/12/20 06:38:32;;;;;;;18.40;2.30;;;7.90;99.90;;;;;;4167375;28;20196;-91
2021/12/20 06:40:34;;;;;;;20.77;2.43;;;7.90;99.90;;;;;;4165687;28;20662;-90
2021/12/20 06:42:37;;;;;;;22.33;2.60;;;7.90;99.90;;;;;;4165775;28;20218;-90
2021/12/20 06:44:38;;;;;;;28.00;3.00;;;8.00;99.90;;;;;;4165681;28;20279;-91
2021/12/20 06:46:40;;;;;;;20.97;2.90;;;7.90;99.90;;;;;;4150038;28;20180;-90
2021/12/20 06:48:41;;;;;;;20.57;2.77;;;7.90;99.90;;;;;;4150697;28;20550;-96
2021/12/20 06:50:42;;;;;;;21.13;2.50;;;7.90;99.90;;;;;;4165708;28;20237;-90
2021/12/20 06:52:42;;;;;;;28.90;2.97;;;7.90;99.90;;;;;;4150942;28;20612;-91
2021/12/20 06:54:43;;;;;;;25.97;2.97;;;7.90;99.90;;;;;;4149671;28;20192;-90
2021/12/20 06:56:44;;;;;;;16.50;2.53;;;7.90;99.90;;;;;;4165498;28;20199;-91
2021/12/20 06:58:45;;;;;;;26.47;3.03;;;7.90;99.90;;;;;;4149047;28;20169;-89
2021/12/20 07:00:46;;;;;;;28.67;3.13;;;7.90;99.90;;;;;;4165070;28;20176;-89
2021/12/20 07:02:46;;;;;;;20.13;2.30;;;7.90;99.90;;;;;;4148876;28;20236;-89
2021/12/20 07:04:47;;;;;;;25.53;3.10;;;8.00;99.90;;;;;;4151226;28;20621;-89
2021/12/20 07:06:48;;;;;;;22.67;3.13;;;8.10;99.90;;;;;;4182261;28;20610;-89
2021/12/20 07:08:48;;;;;;;29.57;2.80;;;8.20;99.90;;;;;;4148799;28;20256;-89
2021/12/20 07:10:49;;;;;;;19.13;2.33;;;8.20;99.90;;;;;;4166315;28;20176;-89
2021/12/20 07:12:51;;;;;;;21.27;2.57;;;8.20;99.90;;;;;;4151336;28;20596;-89
2021/12/20 07:14:52;;;;;;;22.90;2.80;;;8.20;99.90;;;;;;4148599;28;20258;-90
2021/12/20 07:16:54;;;;;;;23.53;2.30;;;8.10;99.90;;;;;;4165567;28;20204;-89
2021/12/20 07:18:55;;;;;;;20.73;2.40;;;8.10;99.90;;;;;;4165755;28;20620;-89
2021/12/20 07:20:55;;;;;;;18.87;2.30;;;8.00;99.90;;;;;;4148699;28;20183;-89
2021/12/20 07:22:56;;;;;;;23.47;2.70;;;7.90;99.90;;;;;;4148989;28;20173;-90
2021/12/20 07:24:57;;;;;;;32.57;3.47;;;7.80;99.90;;;;;;4148655;28;20197;-89
2021/12/20 07:26:58;;;;;;;26.17;2.60;;;7.80;99.90;;;;;;4165107;28;20176;-89
2021/12/20 07:28:59;;;;;;;30.93;4.00;;;7.90;99.90;;;;;;4149126;28;20177;-94
2021/12/20 07:30:59;;;;;;;31.43;3.17;;;8.10;99.90;;;;;;4164905;28;20180;-89
2021/12/20 07:33:00;;;;;;;17.40;2.33;;;8.10;99.90;;;;;;4148747;28;20208;-89
2021/12/20 07:35:01;;;;;;;19.30;2.83;;;8.20;99.90;;;;;;4149115;28;20181;-90
2021/12/20 07:37:03;;;;;;;24.73;2.80;;;8.20;99.90;;;;;;4165149;28;20267;-89
2021/12/20 07:39:05;;;;;;;17.80;2.50;;;8.00;99.90;;;;;;4165725;28;20219;-88
2021/12/20 07:41:06;;;;;;;22.33;2.70;;;7.90;99.90;;;;;;4165014;28;20187;-89
2021/12/20 07:43:06;;;;;;;25.20;2.77;;;7.90;99.90;;;;;;4165031;28;20641;-89
2021/12/20 07:45:08;;;;;;;19.30;2.57;;;7.90;99.90;;;;;;4148461;28;20209;-89
2021/12/20 07:47:09;;;;;;;19.70;2.50;;;7.80;99.90;;;;;;4148637;28;20327;-89
2021/12/20 07:49:10;;;;;;;27.70;3.20;;;7.70;99.90;;;;;;4148505;28;20177;-90
2021/12/20 07:51:11;;;;;;;21.57;2.60;;;7.80;99.90;;;;;;4165476;28;20164;-89
2021/12/20 07:53:11;;;;;;;20.40;2.23;;;7.90;99.90;;;;;;4149424;28;20244;-89
2021/12/20 07:55:12;;;;;;;22.50;2.67;;;8.10;99.90;;;;;;4164803;28;20759;-89
2021/12/20 07:57:13;;;;;;;22.03;2.70;;;8.30;99.90;;;;;;4148820;28;20177;-90
2021/12/20 07:59:14;;;;;;;22.33;3.37;;;8.50;99.90;;;;;;4170581;28;20176;-89
2021/12/20 08:01:16;;;;;;;26.87;3.07;;;8.70;99.90;;;;;;4154400;28;20169;-89
2021/12/20 08:03:18;;;;;;;25.27;3.07;;;8.80;99.90;;;;;;4148449;28;20177;-90
2021/12/20 08:05:19;;;;;;;20.50;2.70;;;8.70;99.90;;;;;;4165962;28;20208;-91
2021/12/20 08:07:21;;;;;;;27.33;3.07;;;8.60;99.90;;;;;;4148450;28;20176;-90
2021/12/20 08:09:22;;;;;;;28.30;3.40;;;8.60;99.90;;;;;;4165613;28;20176;-89
2021/12/20 08:11:23;;;;;;;26.07;3.43;;;8.70;99.90;;;;;;4149036;28;20248;-90
2021/12/20 08:13:24;;;;;;;24.73;3.33;;;8.70;99.90;;;;;;4166219;28;20216;-90
2021/12/20 08:15:26;;;;;;;24.13;3.20;;;8.60;99.90;;;;;;4164338;28;20231;-89
2021/12/20 08:17:28;;;;;;;30.03;3.17;;;8.60;99.90;;;;;;4164453;28;20222;-89
2021/12/20 08:19:29;;;;;;;23.77;2.70;;;8.60;99.90;;;;;;4148424;28;20177;-90
2021/12/20 08:21:30;;;;;;;26.63;3.87;;;8.70;99.90;;;;;;4164619;28;20535;-90
2021/12/20 08:23:31;;;;;;;30.70;3.57;;;8.60;99.90;;;;;;4148254;28;20165;-89
2021/12/20 08:25:32;;;;;;;18.77;2.67;;;8.70;99.90;;;;;;4166173;28;20203;-89
2021/12/20 08:27:33;;;;;;;28.10;2.93;;;8.50;99.90;;;;;;4151336;28;20305;-89
2021/12/20 08:29:33;;;;;;;23.43;3.27;;;8.40;99.90;;;;;;4151887;28;20184;-89
2021/12/20 08:31:36;;;;;;;17.50;3.47;;;8.30;99.90;;;;;;4151106;28;20173;-89
2021/12/20 08:33:37;;;;;;;20.67;3.10;;;8.10;99.90;;;;;;4167519;28;20235;-89
2021/12/20 08:35:37;;;;;;;20.13;3.50;;;8.00;99.90;;;;;;4151174;28;20189;-89
2021/12/20 08:37:39;;;;;;;25.53;3.57;;;7.80;99.90;;;;;;4167393;28;20165;-89
2021/12/20 08:39:39;;;;;;;23.93;2.73;;;7.60;99.90;;;;;;4166778;28;20181;-89
2021/12/20 08:41:40;;;;;;;26.80;3.23;;;7.60;99.90;;;;;;4151177;28;20177;-89
2021/12/20 08:43:41;;;;;;;35.73;3.83;;;7.50;99.90;;;;;;4151720;28;20173;-89
2021/12/20 08:45:42;;;;;;;27.17;3.67;;;7.50;99.90;;;;;;4169540;28;20246;-89
2021/12/20 08:47:43;;;;;;;25.67;3.40;;;7.60;99.90;;;;;;4167268;28;20730;-89
2021/12/20 08:49:44;;;;;;;27.37;3.67;;;7.70;99.90;;;;;;4167807;28;20221;-89
2021/12/20 08:51:45;;;;;;;23.17;3.30;;;7.80;99.90;;;;;;4168440;28;20698;-89
2021/12/20 08:53:46;;;;;;;34.43;4.53;;;7.80;99.90;;;;;;4152551;28;20313;-89
2021/12/20 08:55:47;;;;;;;31.47;4.87;;;7.80;99.90;;;;;;4167268;28;20196;-90
2021/12/20 08:57:47;;;;;;;27.57;4.63;;;7.80;99.90;;;;;;4150944;28;20185;-89
2021/12/20 08:59:48;;;;;;;28.10;3.80;;;7.80;99.90;;;;;;4183770;28;20202;-90
2021/12/20 09:01:50;;;;;;;29.10;4.07;;;7.80;99.90;;;;;;4150625;28;20169;-89
2021/12/20 09:03:50;;;;;;;28.30;3.27;;;7.80;99.90;;;;;;4151519;28;20180;-89
2021/12/20 09:05:52;;;;;;;26.37;3.37;;;7.80;99.90;;;;;;4167447;28;20254;-90
2021/12/20 09:07:56;;;;;;;24.10;3.47;;;8.00;99.90;;;;;;4168438;28;20172;-89
2021/12/20 09:09:57;;;;;;;21.03;3.20;;;8.10;99.90;;;;;;4150908;28;20208;-89
2021/12/20 09:11:59;;;;;;;27.27;3.20;;;8.20;99.90;;;;;;4152310;28;20531;-95
2021/12/20 09:14:00;;;;;;;24.80;3.10;;;8.30;99.90;;;;;;4150448;28;20351;-89
2021/12/20 09:16:01;;;;;;;24.57;2.73;;;8.30;99.90;;;;;;4153345;28;20188;-89
2021/12/20 09:18:03;;;;;;;25.63;3.37;;;8.30;99.90;;;;;;4170067;28;20194;-90
2021/12/20 09:20:05;;;;;;;26.73;3.47;;;8.40;99.90;;;;;;4150609;28;20217;-90
2021/12/20 09:22:10;;;;;;;27.90;3.53;;;8.40;99.90;;;;;;4150835;28;20269;-89
2021/12/20 09:24:11;;;;;;;22.17;3.10;;;8.30;99.90;;;;;;4166845;28;20214;-89
2021/12/20 09:26:12;;;;;;;30.73;3.67;;;8.20;99.90;;;;;;4166535;28;20184;-89
2021/12/20 09:28:13;;;;;;;22.07;3.97;;;8.30;99.90;;;;;;4150482;28;20260;-89
2021/12/20 09:30:16;;;;;;;31.07;4.27;;;8.30;99.90;;;;;;4168197;28;20176;-89
2021/12/20 09:32:17;;;;;;;27.53;3.70;;;8.40;99.90;;;;;;4151920;28;20173;-90
2021/12/20 09:34:18;;;;;;;27.80;3.60;;;8.50;99.90;;;;;;4150339;28;20299;-90
2021/12/20 09:36:18;;;;;;;23.50;2.73;;;8.60;99.90;;;;;;4157739;28;20196;-90
2021/12/20 09:38:20;;;;;;;28.87;3.53;;;8.80;99.90;;;;;;4154259;28;20176;-90
2021/12/20 09:40:36;;;;;;;18.83;2.87;;;9.10;99.90;;;;;;4154401;28;20172;-90
2021/12/20 09:42:53;;;;;;;27.03;2.80;;;8.70;99.90;;;;;;4166724;28;20204;-90
2021/12/20 09:44:54;;;;;;;30.00;4.10;;;9.00;99.90;;;;;;4151052;28;20284;-90
2021/12/20 09:46:57;;;;;;;27.37;3.90;;;8.70;99.90;;;;;;4168118;28;20549;-90
2021/12/20 09:48:58;;;;;;;27.33;3.60;;;8.30;99.90;;;;;;4166571;28;20184;-90
2021/12/20 09:50:58;;;;;;;35.03;4.07;;;8.60;99.90;;;;;;4166324;28;20172;-90
2021/12/20 09:53:04;;;;;;;24.10;3.83;;;8.90;99.90;;;;;;4167436;28;20204;-90
2021/12/20 09:55:05;;;;;;;24.07;3.80;;;9.40;99.90;;;;;;4149780;28;20258;-90
2021/12/20 09:57:11;;;;;;;24.00;3.80;;;9.80;99.90;;;;;;4150216;28;20168;-90
2021/12/20 09:59:17;;;;;;;23.23;3.90;;;9.80;99.90;;;;;;4150281;28;20177;-89
2021/12/20 10:01:21;;;;;;;32.90;3.83;;;9.60;99.90;;;;;;4166059;28;20660;-89
2021/12/20 10:03:23;;;;;;;28.17;3.83;;;9.40;99.90;;;;;;4151086;28;20263;-90
2021/12/20 10:05:24;;;;;;;32.97;4.00;;;9.40;99.90;;;;;;4150713;28;20221;-90
2021/12/20 10:07:27;;;;;;;23.23;3.37;;;9.40;99.90;;;;;;4168225;28;20176;-89
2021/12/20 10:09:34;;;;;;;25.00;3.63;;;9.50;99.90;;;;;;4166124;28;20183;-90
2021/12/20 10:11:37;;;;;;;29.47;4.00;;;9.70;99.90;;;;;;4149783;28;20208;-90
2021/12/20 10:13:38;;;;;;;26.90;3.03;;;9.50;99.90;;;;;;4149680;28;20255;-89
2021/12/20 10:15:39;;;;;;;24.07;3.23;;;9.60;99.90;;;;;;4169901;28;20196;-90
2021/12/20 10:17:55;;;;;;;22.90;3.10;;;9.80;99.90;;;;;;4149528;28;20165;-90
2021/12/20 10:20:10;;;;;;;27.93;3.67;;;9.90;99.90;;;;;;4149845;28;20181;-89
2021/12/20 10:22:22;;;;;;;16.80;2.83;;;9.70;99.90;;;;;;4149559;28;20184;-90
2021/12/20 10:24:36;;;;;;;22.17;3.27;;;9.50;99.90;;;;;;4165711;28;20692;-89
2021/12/20 10:26:42;;;;;;;36.07;3.93;;;9.50;99.90;;;;;;4149381;28;20177;-90
2021/12/20 10:28:44;;;;;;;25.43;3.40;;;9.40;99.90;;;;;;4149437;28;20235;-89
2021/12/20 10:31:06;;;;;;;35.87;4.27;;;9.30;99.90;;;;;;4149900;28;20260;-90
2021/12/20 10:33:19;;;;;;;23.47;3.60;;;9.30;99.90;;;;;;4156247;28;20216;-90
2021/12/20 10:35:40;;;;;;;31.43;3.50;;;9.20;99.90;;;;;;4167539;28;20582;-89
2021/12/20 10:37:41;;;;;;;20.83;3.30;;;9.40;99.90;;;;;;4155995;28;20272;-90
2021/12/20 10:39:45;;;;;;;26.47;3.27;;;9.30;99.90;;;;;;4149220;28;20231;-89
2021/12/20 10:41:51;;;;;;;20.90;2.73;;;9.10;99.90;;;;;;4166950;28;20173;-90